createdAt,value
2023-01-03T00:01:38.885Z,57.50
2023-01-03T00:04:07.356Z,56.60
2023-01-03T00:06:39.345Z,56.50
2023-01-03T00:09:11.135Z,50.60
2023-01-03T00:11:59.395Z,50.90
2023-01-03T00:14:29.717Z,48.70
2023-01-03T00:17:00.161Z,47.90
2023-01-03T00:19:30.703Z,51.90
2023-01-03T00:21:58.921Z,54.30
2023-01-03T00:24:26.864Z,49.80
2023-01-03T00:26:54.846Z,49.70
2023-01-03T00:29:22.951Z,50.10
2023-01-03T00:31:51.275Z,49.10
2023-01-03T00:34:19.293Z,49.80
2023-01-03T00:36:47.286Z,48.90
2023-01-03T00:39:15.323Z,51.60
2023-01-03T00:41:43.261Z,50.80
2023-01-03T00:44:11.228Z,51.60
2023-01-03T00:46:39.295Z,50.20
2023-01-03T00:49:09.195Z,47.10
2023-01-03T00:51:39.953Z,49.50
2023-01-03T00:54:09.227Z,52.00
2023-01-03T00:56:40.539Z,48.20
2023-01-03T00:59:09.290Z,46.70
2023-01-03T01:01:47.197Z,49.90
2023-01-03T01:04:25.726Z,51.40
2023-01-03T01:06:59.170Z,48.50
2023-01-03T01:09:31.365Z,45.20
2023-01-03T01:11:59.356Z,50.60
2023-01-03T01:14:29.475Z,55.00
2023-01-03T01:17:06.965Z,57.30
2023-01-03T01:19:38.103Z,56.40
2023-01-03T01:22:06.557Z,55.90
2023-01-03T01:24:35.215Z,51.30
2023-01-03T01:27:03.425Z,52.90
2023-01-03T01:29:31.433Z,52.20
2023-01-03T01:31:59.454Z,50.70
2023-01-03T01:34:27.741Z,52.10
2023-01-03T01:36:56.791Z,52.30
2023-01-03T01:39:27.614Z,48.20
2023-01-03T01:42:20.437Z,51.00
2023-01-03T01:44:56.306Z,52.50
2023-01-03T01:47:44.530Z,51.40
2023-01-03T01:50:13.042Z,49.10
2023-01-03T01:52:51.415Z,46.60
2023-01-03T01:55:23.825Z,45.00
2023-01-03T01:57:52.881Z,50.00
2023-01-03T02:00:21.351Z,48.30
2023-01-03T02:02:52.153Z,45.70
2023-01-03T02:05:22.092Z,44.60
2023-01-03T02:07:52.284Z,46.10
2023-01-03T02:10:45.923Z,45.10
2023-01-03T02:13:55.312Z,41.20
2023-01-03T02:16:35.300Z,42.70
2023-01-03T02:19:51.061Z,45.00
2023-01-03T02:22:49.053Z,44.40
2023-01-03T02:25:48.028Z,42.40
2023-01-03T02:28:43.680Z,41.70
2023-01-03T02:31:35.015Z,44.70
2023-01-03T02:34:07.846Z,37.90
2023-01-03T02:36:55.948Z,38.10
2023-01-03T02:40:03.438Z,38.60
2023-01-03T02:42:58.086Z,36.00
2023-01-03T02:45:58.109Z,51.10
2023-01-03T02:48:28.930Z,45.60
2023-01-03T02:51:01.874Z,48.00
2023-01-03T02:53:40.826Z,45.40
2023-01-03T02:56:13.159Z,50.90
2023-01-03T02:58:45.295Z,48.50
2023-01-03T03:01:15.759Z,51.10
2023-01-03T03:03:45.212Z,46.20
2023-01-03T03:06:22.123Z,49.80
2023-01-03T03:08:50.073Z,50.90
2023-01-03T03:11:36.617Z,48.10
2023-01-03T03:14:22.741Z,54.40
2023-01-03T03:16:53.310Z,52.00
2023-01-03T03:19:45.057Z,50.40
2023-01-03T03:22:56.753Z,45.00
2023-01-03T03:25:48.785Z,43.10
2023-01-03T03:28:36.469Z,45.90
2023-01-03T03:31:10.500Z,44.10
2023-01-03T03:33:53.699Z,44.40
2023-01-03T03:36:35.765Z,46.10
2023-01-03T03:39:05.785Z,47.00
2023-01-03T03:42:02.073Z,45.60
2023-01-03T03:45:01.937Z,49.30
2023-01-03T03:47:53.803Z,47.50
2023-01-03T03:50:32.266Z,45.50
2023-01-03T03:53:05.105Z,52.10
2023-01-03T03:55:53.988Z,51.30
2023-01-03T03:58:29.391Z,54.20
2023-01-03T04:00:58.905Z,52.20
2023-01-03T04:03:28.955Z,46.70
2023-01-03T04:06:24.906Z,54.00
2023-01-03T04:08:52.782Z,50.40
2023-01-03T04:11:20.673Z,48.30
2023-01-03T04:13:48.606Z,44.80
2023-01-03T04:16:16.685Z,45.90
2023-01-03T04:18:44.743Z,44.80
2023-01-03T04:21:18.880Z,46.70
2023-01-03T04:23:48.724Z,41.60
2023-01-03T04:26:16.801Z,43.90
2023-01-03T04:28:44.718Z,45.70
2023-01-03T04:31:12.714Z,42.20
2023-01-03T04:33:40.549Z,47.00
2023-01-03T04:36:09.175Z,44.00
2023-01-03T04:38:37.125Z,43.60
2023-01-03T04:41:09.147Z,43.60
2023-01-03T04:43:55.678Z,45.80
2023-01-03T04:46:25.374Z,46.20
2023-01-03T04:48:53.425Z,50.60
2023-01-03T04:51:21.447Z,44.10
2023-01-03T04:53:49.409Z,44.80
2023-01-03T04:56:17.443Z,44.50
2023-01-03T04:58:45.377Z,46.90
2023-01-03T05:01:13.402Z,45.00
2023-01-03T05:03:41.588Z,45.20
2023-01-03T05:06:11.116Z,45.20
2023-01-03T05:08:39.313Z,41.00
2023-01-03T05:11:08.064Z,45.90
2023-01-03T05:13:36.027Z,43.80
2023-01-03T05:16:08.447Z,43.80
2023-01-03T05:18:37.839Z,47.00
2023-01-03T05:21:36.831Z,40.10
2023-01-03T05:24:24.434Z,43.70
2023-01-03T05:26:52.737Z,43.30
2023-01-03T05:29:22.323Z,50.20
2023-01-03T05:31:50.503Z,50.30
2023-01-03T05:34:18.540Z,45.30
2023-01-03T05:36:46.568Z,41.70
2023-01-03T05:39:14.664Z,42.80
2023-01-03T05:42:00.948Z,47.50
2023-01-03T05:44:31.335Z,45.90
2023-01-03T05:47:01.117Z,46.50
2023-01-03T05:49:29.228Z,46.10
2023-01-03T05:51:57.348Z,46.90
2023-01-03T05:54:25.263Z,44.00
2023-01-03T05:56:53.126Z,44.10
2023-01-03T05:59:22.808Z,46.90
2023-01-03T06:01:50.906Z,43.70
2023-01-03T06:04:19.466Z,44.60
2023-01-03T06:06:47.467Z,43.70
2023-01-03T06:09:15.456Z,44.20
2023-01-03T06:11:43.485Z,44.90
2023-01-03T06:14:11.730Z,46.10
2023-01-03T06:16:58.445Z,41.10
2023-01-03T06:19:26.340Z,44.30
2023-01-03T06:21:54.224Z,43.20
2023-01-03T06:24:22.070Z,45.00
2023-01-03T06:26:52.509Z,47.00
2023-01-03T06:29:20.544Z,45.50
2023-01-03T06:31:48.416Z,46.80
2023-01-03T06:34:16.387Z,48.20
2023-01-03T06:36:44.212Z,48.10
2023-01-03T06:39:12.143Z,49.10
2023-01-03T06:41:39.975Z,47.00
2023-01-03T06:44:07.789Z,49.50
2023-01-03T06:46:54.397Z,48.10
2023-01-03T06:49:54.632Z,53.70
2023-01-03T06:52:41.236Z,47.40
2023-01-03T06:55:09.297Z,47.90
2023-01-03T06:57:37.086Z,51.40
2023-01-03T07:00:05.492Z,46.10
2023-01-03T07:02:33.454Z,51.30
2023-01-03T07:05:01.391Z,51.30
2023-01-03T07:07:29.193Z,46.90
2023-01-03T07:09:56.986Z,46.70
2023-01-03T07:12:43.561Z,48.80
2023-01-03T07:15:11.602Z,51.80
2023-01-03T07:17:39.508Z,52.70
2023-01-03T07:20:07.978Z,54.60
2023-01-03T07:22:35.894Z,49.60
2023-01-03T07:25:03.928Z,48.30
2023-01-03T07:27:31.858Z,49.80
2023-01-03T07:29:59.767Z,51.60
2023-01-03T07:32:27.576Z,56.00
2023-01-03T07:34:55.455Z,53.70
2023-01-03T07:37:23.390Z,48.60
2023-01-03T07:39:51.263Z,44.00
2023-01-03T07:42:37.780Z,46.40
2023-01-03T07:45:07.393Z,46.70
2023-01-03T07:47:35.375Z,49.10
2023-01-03T07:50:03.308Z,46.30
2023-01-03T07:52:31.095Z,44.90
2023-01-03T07:54:58.997Z,46.10
2023-01-03T07:57:26.786Z,50.80
2023-01-03T07:59:54.732Z,52.40
2023-01-03T08:02:22.757Z,51.90
2023-01-03T08:04:51.080Z,51.20
2023-01-03T08:07:18.872Z,47.60
2023-01-03T08:10:05.393Z,51.30
2023-01-03T08:12:51.888Z,52.80
2023-01-03T08:15:19.745Z,48.70
2023-01-03T08:17:47.570Z,53.40
2023-01-03T08:20:15.546Z,50.00
2023-01-03T08:22:43.364Z,52.30
2023-01-03T08:25:11.327Z,53.80
2023-01-03T08:27:39.140Z,52.00
2023-01-03T08:30:07.615Z,59.20
2023-01-03T08:32:38.925Z,54.70
2023-01-03T08:35:07.058Z,53.40
2023-01-03T08:37:35.060Z,50.20
2023-01-03T08:40:05.429Z,53.90
2023-01-03T08:42:33.945Z,51.60
2023-01-03T08:45:06.216Z,51.30
2023-01-03T08:47:34.506Z,53.30
2023-01-03T08:50:03.144Z,51.80
2023-01-03T08:52:35.080Z,53.70
2023-01-03T08:55:04.792Z,54.90
2023-01-03T08:57:32.698Z,51.00
2023-01-03T09:00:00.535Z,56.20
2023-01-03T09:02:29.051Z,54.10
2023-01-03T09:04:57.604Z,57.10
2023-01-03T09:07:25.501Z,52.70
2023-01-03T09:09:53.325Z,57.60
2023-01-03T09:12:21.179Z,55.40
2023-01-03T09:14:49.077Z,49.20
2023-01-03T09:17:16.970Z,49.20
2023-01-03T09:19:44.876Z,50.20
2023-01-03T09:22:12.749Z,54.30
2023-01-03T09:24:40.642Z,53.40
2023-01-03T09:27:08.470Z,56.00
2023-01-03T09:29:36.268Z,52.00
2023-01-03T09:32:04.915Z,56.80
2023-01-03T09:34:32.776Z,56.40
2023-01-03T09:37:00.636Z,57.80
2023-01-03T09:39:28.499Z,59.90
2023-01-03T09:42:15.176Z,60.20
2023-01-03T09:44:43.056Z,57.60
2023-01-03T09:47:20.076Z,59.00
2023-01-03T09:50:26.040Z,59.90
2023-01-03T09:53:03.497Z,56.30
2023-01-03T09:56:16.889Z,51.20
2023-01-03T09:59:11.250Z,49.80
2023-01-03T10:02:43.263Z,47.00
2023-01-03T10:05:17.020Z,51.80
2023-01-03T10:07:59.220Z,54.90
2023-01-03T10:10:36.651Z,51.10
2023-01-03T10:13:29.182Z,45.80
2023-01-03T10:16:02.548Z,43.90
2023-01-03T10:18:36.373Z,46.30
2023-01-03T10:21:26.222Z,43.20
2023-01-03T10:23:55.171Z,44.50
2023-01-03T10:26:32.618Z,45.40
2023-01-03T10:29:01.689Z,46.70
2023-01-03T10:31:29.740Z,49.10
2023-01-03T10:33:57.654Z,49.10
2023-01-03T10:36:25.721Z,50.80
2023-01-03T10:39:08.662Z,50.00
2023-01-03T10:41:44.538Z,52.30
2023-01-03T10:44:55.820Z,53.30
2023-01-03T10:47:27.159Z,58.70
2023-01-03T10:50:04.401Z,56.30
2023-01-03T10:52:38.067Z,58.90
2023-01-03T10:55:16.525Z,60.40
2023-01-03T10:57:53.482Z,52.60
2023-01-03T11:00:25.067Z,57.90
2023-01-03T11:02:54.852Z,59.10
2023-01-03T11:05:26.449Z,59.50
2023-01-03T11:07:57.877Z,56.90
2023-01-03T11:10:37.206Z,56.70
2023-01-03T11:13:24.287Z,53.10
2023-01-03T11:16:00.200Z,58.20
2023-01-03T11:18:29.784Z,55.40
2023-01-03T11:21:13.041Z,58.10
2023-01-03T11:23:58.948Z,52.10
2023-01-03T11:27:00.034Z,54.80
2023-01-03T11:30:00.705Z,53.90
2023-01-03T11:32:51.410Z,51.00
2023-01-03T11:35:39.986Z,51.30
2023-01-03T11:38:31.897Z,52.60
2023-01-03T11:41:15.048Z,51.00
2023-01-03T11:44:07.127Z,52.00
2023-01-03T11:46:56.875Z,50.10
2023-01-03T11:49:28.998Z,48.80
2023-01-03T11:52:15.884Z,49.50
2023-01-03T11:55:08.148Z,44.70
2023-01-03T11:57:44.254Z,46.90
2023-01-03T12:00:17.644Z,42.20
2023-01-03T12:02:48.636Z,48.40
2023-01-03T12:05:41.860Z,46.80
2023-01-03T12:08:12.744Z,43.20
2023-01-03T12:11:20.304Z,42.00
2023-01-03T12:14:14.652Z,43.10
2023-01-03T12:16:49.243Z,44.70
2023-01-03T12:19:35.488Z,43.70
2023-01-03T12:22:24.820Z,43.60
2023-01-03T12:25:04.800Z,43.40
2023-01-03T12:27:39.122Z,44.60
2023-01-03T12:30:45.672Z,47.40
2023-01-03T12:33:35.456Z,42.30
2023-01-03T12:36:21.450Z,45.60
2023-01-03T12:39:03.428Z,49.80
2023-01-03T12:41:47.329Z,46.60
2023-01-03T12:44:24.258Z,50.50
2023-01-03T12:46:56.535Z,45.00
2023-01-03T12:49:33.766Z,48.50
2023-01-03T12:52:01.914Z,50.80
2023-01-03T12:54:39.876Z,47.80
2023-01-03T12:57:26.485Z,50.60
2023-01-03T13:00:20.974Z,57.70
2023-01-03T13:05:32.295Z,51.10
2023-01-03T13:08:05.195Z,50.50
2023-01-03T13:10:37.463Z,54.50
2023-01-03T13:13:06.253Z,49.20
2023-01-03T13:15:37.148Z,53.00
2023-01-03T13:18:21.084Z,46.40
2023-01-03T13:20:50.525Z,42.60
2023-01-03T13:23:21.368Z,47.60
2023-01-03T13:26:07.574Z,46.70
2023-01-03T13:28:39.568Z,47.50
2023-01-03T13:31:14.405Z,47.80
2023-01-03T13:33:55.097Z,48.90
2023-01-03T13:36:24.228Z,47.90
2023-01-03T13:38:52.454Z,49.20
2023-01-03T13:41:37.535Z,45.40
2023-01-03T13:44:15.401Z,50.10
2023-01-03T13:46:43.766Z,40.90
2023-01-03T13:49:23.379Z,40.70
2023-01-03T13:51:56.909Z,40.90
2023-01-03T13:54:25.195Z,42.00
2023-01-03T13:56:53.027Z,36.30
2023-01-03T13:59:31.081Z,39.90
2023-01-03T14:02:40.540Z,41.30
2023-01-03T14:05:19.227Z,34.40
2023-01-03T14:08:01.570Z,35.20
2023-01-03T14:10:48.142Z,36.40
2023-01-03T14:13:30.906Z,39.90
2023-01-03T14:16:17.904Z,35.20
2023-01-03T14:19:01.959Z,47.60
2023-01-03T14:21:47.385Z,37.60
2023-01-03T14:24:20.975Z,36.90
2023-01-03T14:26:49.272Z,38.40
2023-01-03T14:29:21.009Z,36.30
2023-01-03T14:31:55.929Z,40.30
2023-01-03T14:34:41.436Z,41.50
2023-01-03T14:37:15.561Z,39.30
2023-01-03T14:42:23.040Z,37.30
2023-01-03T14:45:03.201Z,36.50
2023-01-03T14:47:42.758Z,39.10
2023-01-03T14:50:26.412Z,39.00
2023-01-03T14:53:04.402Z,38.90
2023-01-03T14:55:33.498Z,46.90
2023-01-03T14:58:23.055Z,44.10
2023-01-03T15:00:52.229Z,46.00
2023-01-03T15:03:20.293Z,44.90
2023-01-03T15:05:54.730Z,54.80
2023-01-03T15:08:29.858Z,58.30
2023-01-03T15:11:06.041Z,59.40
2023-01-03T15:13:35.291Z,54.70
2023-01-03T15:16:19.314Z,53.50
2023-01-03T15:18:48.028Z,45.60
2023-01-03T15:21:21.782Z,41.90
2023-01-03T15:23:50.238Z,46.40
2023-01-03T15:26:25.309Z,41.10
2023-01-03T15:29:14.556Z,44.10
2023-01-03T15:31:54.476Z,44.00
2023-01-03T15:34:31.396Z,46.30
2023-01-03T15:36:59.284Z,44.90
2023-01-03T15:39:37.551Z,44.50
2023-01-03T15:42:51.938Z,45.00
2023-01-03T15:45:24.738Z,46.80
2023-01-03T15:47:56.429Z,47.50
2023-01-03T15:50:33.625Z,46.70
2023-01-03T15:53:01.492Z,46.40
2023-01-03T15:55:29.363Z,47.10
2023-01-03T15:57:57.219Z,48.20
2023-01-03T16:00:26.299Z,45.30
2023-01-03T16:02:55.736Z,49.30
2023-01-03T16:05:23.741Z,42.50
2023-01-03T16:07:51.717Z,48.00
2023-01-03T16:10:21.738Z,44.40
2023-01-03T16:12:49.749Z,44.90
2023-01-03T16:15:22.007Z,52.00
2023-01-03T16:17:51.265Z,47.50
2023-01-03T16:20:19.971Z,51.50
2023-01-03T16:23:00.491Z,46.40
2023-01-03T16:25:29.282Z,49.60
2023-01-03T16:27:57.305Z,50.30
2023-01-03T16:30:25.481Z,52.70
2023-01-03T16:32:53.450Z,56.00
2023-01-03T16:35:21.407Z,51.70
2023-01-03T16:37:49.333Z,52.50
2023-01-03T16:40:20.109Z,56.40
2023-01-03T16:42:48.630Z,53.50
2023-01-03T16:45:17.687Z,54.00
2023-01-03T16:47:46.103Z,54.50
2023-01-03T16:50:18.757Z,54.40
2023-01-03T16:52:52.307Z,56.40
2023-01-03T16:55:27.584Z,49.40
2023-01-03T16:57:57.057Z,52.80
2023-01-03T17:00:28.171Z,56.10
2023-01-03T17:02:56.776Z,49.60
2023-01-03T17:05:25.867Z,55.00
2023-01-03T17:08:05.199Z,59.10
2023-01-03T17:10:38.761Z,58.60
2023-01-03T17:13:12.610Z,52.70
2023-01-03T17:15:41.679Z,50.60
2023-01-03T17:18:19.166Z,56.10
2023-01-03T17:20:52.641Z,54.10
2023-01-03T17:23:20.652Z,59.40
2023-01-03T17:25:49.725Z,55.80
2023-01-03T17:28:17.839Z,55.60
2023-01-03T17:30:46.338Z,57.00
2023-01-03T17:33:15.591Z,54.00
2023-01-03T17:35:46.079Z,58.50
2023-01-03T17:38:32.089Z,60.60
2023-01-03T17:40:59.952Z,57.80
2023-01-03T17:43:28.875Z,59.90
2023-01-03T17:46:22.927Z,59.00
2023-01-03T17:49:09.774Z,57.70
2023-01-03T17:51:37.769Z,64.00
2023-01-03T17:54:05.675Z,57.00
2023-01-03T17:56:33.611Z,54.20
2023-01-03T17:59:01.495Z,61.90
2023-01-03T18:01:29.458Z,58.00
2023-01-03T18:03:57.747Z,64.70
2023-01-03T18:06:26.019Z,63.60
2023-01-03T18:08:56.806Z,60.50
2023-01-03T18:11:27.347Z,65.90
2023-01-03T18:13:55.322Z,63.20
2023-01-03T18:16:23.692Z,65.60
2023-01-03T18:18:51.547Z,64.10
2023-01-03T18:21:22.657Z,65.30
2023-01-03T18:24:03.147Z,63.80
2023-01-03T18:26:43.633Z,67.00
2023-01-03T18:29:15.308Z,65.10
2023-01-03T18:31:44.807Z,59.60
2023-01-03T18:34:13.500Z,67.50
2023-01-03T18:36:50.600Z,64.30
2023-01-03T18:39:31.579Z,66.80
2023-01-03T18:42:19.470Z,66.30
2023-01-03T18:44:47.386Z,62.80
2023-01-03T18:47:15.634Z,69.80
2023-01-03T18:49:43.516Z,68.10
2023-01-03T18:52:29.636Z,71.60
2023-01-03T18:54:57.638Z,63.80
2023-01-03T18:57:25.558Z,64.10
2023-01-03T18:59:53.456Z,58.30
2023-01-03T19:02:22.666Z,57.40
2023-01-03T19:04:51.885Z,62.10
2023-01-03T19:07:32.752Z,58.50
2023-01-03T19:10:02.358Z,59.60
2023-01-03T19:12:37.439Z,59.00
2023-01-03T19:15:22.734Z,65.90
2023-01-03T19:17:50.620Z,60.30
2023-01-03T19:20:23.376Z,60.60
2023-01-03T19:22:55.960Z,59.50
2023-01-03T19:25:27.698Z,64.50
2023-01-03T19:28:00.660Z,62.60
2023-01-03T19:30:38.666Z,59.20
2023-01-03T19:33:12.870Z,57.00
2023-01-03T19:35:41.194Z,64.00
2023-01-03T19:38:09.641Z,62.50
2023-01-03T19:40:40.341Z,65.20
2023-01-03T19:43:18.335Z,68.20
2023-01-03T19:45:46.703Z,66.90
2023-01-03T19:48:23.464Z,65.70
2023-01-03T19:50:53.092Z,61.10
2023-01-03T19:53:20.960Z,62.60
2023-01-03T19:55:50.565Z,61.00
2023-01-03T19:58:32.796Z,64.40
2023-01-03T20:01:00.918Z,64.90
2023-01-03T20:03:43.948Z,62.40
2023-01-03T20:06:13.620Z,66.80
2023-01-03T20:08:41.544Z,65.50
2023-01-03T20:11:21.646Z,66.50
2023-01-03T20:13:49.731Z,66.00
2023-01-03T20:16:18.289Z,66.60
2023-01-03T20:18:48.139Z,68.60
2023-01-03T20:21:23.042Z,64.80
2023-01-03T20:23:54.690Z,50.10
2023-01-03T20:26:26.327Z,47.20
2023-01-03T20:28:56.513Z,48.90
2023-01-03T20:31:25.443Z,49.90
2023-01-03T20:33:53.340Z,48.20
2023-01-03T20:36:25.510Z,46.60
2023-01-03T20:38:55.803Z,46.60
2023-01-03T20:41:36.047Z,47.30
2023-01-03T20:44:08.091Z,45.40
2023-01-03T20:46:38.835Z,49.10
2023-01-03T20:49:32.435Z,48.70
2023-01-03T20:52:00.417Z,44.70
2023-01-03T20:54:28.241Z,46.10
2023-01-03T20:56:56.176Z,45.70
2023-01-03T20:59:24.508Z,47.20
2023-01-03T21:01:52.520Z,42.80
2023-01-03T21:04:20.458Z,46.50
2023-01-03T21:06:49.019Z,46.90
2023-01-03T21:09:16.944Z,123.10
2023-01-03T21:11:47.008Z,244.50
2023-01-03T21:14:15.026Z,292.40
2023-01-03T21:16:46.489Z,232.20
2023-01-03T21:19:23.119Z,305.20
2023-01-03T21:21:53.437Z,142.40
2023-01-03T21:24:23.493Z,149.40
2023-01-03T21:26:52.130Z,101.40
2023-01-03T21:29:20.152Z,59.60
2023-01-03T21:31:48.126Z,38.70
2023-01-03T21:34:19.412Z,33.10
2023-01-03T21:36:47.699Z,25.30
2023-01-03T21:39:15.898Z,25.80
2023-01-03T21:42:02.205Z,27.40
2023-01-03T21:44:30.133Z,42.00
2023-01-03T21:46:58.054Z,86.40
2023-01-03T21:49:25.978Z,90.60
2023-01-03T21:51:53.903Z,91.60
2023-01-03T21:54:21.680Z,101.20
2023-01-03T21:56:49.733Z,95.20
2023-01-03T21:59:17.901Z,95.30
2023-01-03T22:02:05.472Z,94.30
2023-01-03T22:04:33.778Z,93.20
2023-01-03T22:07:02.270Z,97.50
2023-01-03T22:09:50.089Z,95.30
2023-01-03T22:12:19.474Z,121.90
2023-01-03T22:14:47.895Z,93.00
2023-01-03T22:17:16.124Z,85.70
2023-01-03T22:19:44.065Z,86.90
2023-01-03T22:22:12.027Z,82.20
2023-01-03T22:24:39.976Z,82.10
2023-01-03T22:27:07.997Z,84.80
2023-01-03T22:29:35.949Z,82.90
2023-01-03T22:32:04.178Z,84.40
2023-01-03T22:34:32.006Z,85.70
2023-01-03T22:36:59.941Z,79.20
2023-01-03T22:39:27.926Z,70.00
2023-01-03T22:41:56.946Z,64.50
2023-01-03T22:44:24.983Z,74.10
2023-01-03T22:46:52.945Z,69.00
2023-01-03T22:49:20.839Z,77.00
2023-01-03T22:51:48.674Z,78.30
2023-01-03T22:54:16.663Z,75.80
2023-01-03T22:56:44.611Z,69.80
2023-01-03T22:59:12.488Z,70.30
2023-01-03T23:01:40.570Z,69.80
2023-01-03T23:04:08.665Z,76.70
2023-01-03T23:06:36.650Z,72.80
2023-01-03T23:09:04.696Z,122.00
2023-01-03T23:11:51.721Z,232.90
2023-01-03T23:14:21.556Z,179.30
2023-01-03T23:16:53.394Z,126.70
2023-01-03T23:19:26.923Z,74.60
2023-01-03T23:21:56.392Z,52.90
2023-01-03T23:24:25.271Z,55.70
2023-01-03T23:26:53.549Z,120.10
2023-01-03T23:29:21.849Z,219.70
2023-01-03T23:31:49.687Z,145.90
2023-01-03T23:34:17.579Z,116.70
2023-01-03T23:36:45.532Z,238.10
2023-01-03T23:39:15.203Z,214.90
2023-01-03T23:41:43.053Z,96.30
2023-01-03T23:44:11.101Z,125.90
2023-01-03T23:46:39.190Z,110.70
2023-01-03T23:49:07.432Z,95.90
2023-01-03T23:51:36.876Z,85.10
2023-01-03T23:54:04.913Z,64.40
2023-01-03T23:56:33.570Z,66.00
2023-01-03T23:59:01.404Z,57.50
